Time;durP1;ratioP1;P1;durP2;ratioP2;P2;SDS_P1;SDS_P2;PMS_P1;PMS_P2;Temp;Humidity;BMP_temperature;BMP_pressure;BME280_temperature;BME280_humidity;BME280_pressure;Samples;Min_cycle;Max_cycle;Signal;HPM_P1;HPM_P2
2021/12/06 00:01:05;;;;;;;8.30;7.27;;;;;;;-0.41;100.00;95463.25;5071592;27;105187;-61
2021/12/06 00:03:36;;;;;;;7.83;6.87;;;;;;;-0.51;100.00;95459.47;5072280;27;101825;-61
2021/12/06 00:06:03;;;;;;;7.50;6.70;;;;;;;-0.45;100.00;95461.25;5072041;27;105112;-61
2021/12/06 00:08:31;;;;;;;8.40;6.87;;;;;;;-0.45;100.00;95456.81;5074766;27;105704;-61
2021/12/06 00:10:58;;;;;;;10.57;7.50;;;;;;;-0.48;100.00;95456.44;5071858;27;104354;-61
2021/12/06 00:13:28;;;;;;;8.83;7.50;;;;;;;-0.55;100.00;95463.50;5072794;27;103062;-61
2021/12/06 00:15:55;;;;;;;8.90;7.03;;;;;;;-0.58;100.00;95456.88;5073377;27;101856;-61
2021/12/06 00:18:22;;;;;;;9.27;7.80;;;;;;;-0.49;100.00;95463.47;5071541;27;105101;-61
2021/12/06 00:20:49;;;;;;;11.57;8.90;;;;;;;-0.45;100.00;95467.25;5071301;27;104015;-61
2021/12/06 00:23:16;;;;;;;10.80;8.40;;;;;;;-0.41;100.00;95465.84;5072018;27;101758;-61
2021/12/06 00:25:43;;;;;;;10.20;8.20;;;;;;;-0.38;100.00;95468.84;5071780;27;105134;-61
2021/12/06 00:28:10;;;;;;;9.80;7.83;;;;;;;-0.39;100.00;95473.50;5074322;27;105237;-61
2021/12/06 00:30:39;;;;;;;10.53;8.07;;;;;;;-0.57;100.00;95468.91;5071702;27;104899;-61
2021/12/06 00:33:06;;;;;;;12.27;9.03;;;;;;;-0.73;100.00;95469.34;5070912;27;105124;-61
2021/12/06 00:35:33;;;;;;;11.00;8.90;;;;;;;-0.68;100.00;95472.13;5071809;27;101946;-61
2021/12/06 00:38:00;;;;;;;13.90;9.20;;;;;;;-0.70;100.00;95476.78;5071358;27;105193;-61
2021/12/06 00:40:31;;;;;;;11.23;8.27;;;;;;;-0.72;100.00;95480.59;5071136;27;105756;-61
2021/12/06 00:42:58;;;;;;;12.30;8.93;;;;;;;-0.62;100.00;95476.53;5070918;27;102093;-61
2021/12/06 00:45:25;;;;;;;10.37;8.30;;;;;;;-0.71;100.00;95475.13;5071692;27;103688;-61
2021/12/06 00:47:54;;;;;;;10.53;8.00;;;;;;;-0.69;100.00;95480.97;5070742;27;105730;-61
2021/12/06 00:50:24;;;;;;;10.10;8.43;;;;;;;-0.71;100.00;95485.59;5074758;27;101924;-61
2021/12/06 00:52:51;;;;;;;9.77;8.77;;;;;;;-0.59;100.00;95481.38;5070873;27;105216;-61
2021/12/06 00:55:20;;;;;;;10.73;8.70;;;;;;;-0.76;100.00;95480.19;5070973;27;102079;-61
2021/12/06 00:57:48;;;;;;;10.70;8.37;;;;;;;-0.78;100.00;95487.41;5071273;27;105532;-61
2021/12/06 01:00:20;;;;;;;10.97;9.00;;;;;;;-0.71;100.00;95488.19;5070585;27;105095;-61
2021/12/06 01:02:48;;;;;;;10.53;9.43;;;;;;;-0.68;100.00;95493.03;5071355;27;102162;-61
2021/12/06 01:05:18;;;;;;;10.50;9.03;;;;;;;-0.76;100.00;95492.44;5071266;27;105263;-61
2021/12/06 01:07:44;;;;;;;11.00;9.47;;;;;;;-0.58;100.00;95498.63;5070521;27;104009;-61
2021/12/06 01:10:12;;;;;;;11.30;9.90;;;;;;;-0.55;100.00;95505.25;5071102;27;101924;-61
2021/12/06 01:12:39;;;;;;;14.10;9.30;;;;;;;-0.51;100.00;95506.47;5075156;27;102950;-61
2021/12/06 01:15:08;;;;;;;13.47;9.10;;;;;;;-0.50;100.00;95508.84;5071295;27;101990;-61
2021/12/06 01:17:35;;;;;;;12.20;9.40;;;;;;;-0.51;100.00;95511.69;5070820;27;104942;-61
2021/12/06 01:20:05;;;;;;;12.70;9.00;;;;;;;-0.57;100.00;95505.44;5070327;27;105228;-61
2021/12/06 01:22:42;;;;;;;12.73;9.10;;;;;;;-0.47;100.00;95517.06;5071236;27;101817;-61
2021/12/06 01:25:23;;;;;;;11.03;8.87;;;;;;;-0.45;100.00;95514.25;5070726;27;104767;-61
2021/12/06 01:28:18;;;;;;;12.20;9.30;;;;;;;-0.46;100.00;95523.09;5070325;27;105613;-61
2021/12/06 01:30:55;;;;;;;9.37;8.30;;;;;;;-0.38;100.00;95525.53;5070629;27;102115;-61
2021/12/06 01:39:15;;;;;;;11.53;9.93;;;;;;;-0.22;100.00;95531.09;5069772;27;104813;-61
2021/12/06 01:41:49;;;;;;;13.40;11.30;;;;;;;-0.22;100.00;95530.28;5069769;27;105072;-61
2021/12/06 01:44:21;;;;;;;14.00;10.93;;;;;;;-0.37;100.00;95533.13;5069274;27;102217;-61
2021/12/06 01:47:05;;;;;;;14.43;11.70;;;;;;;-0.43;100.00;95531.34;5069147;27;105041;-61
2021/12/06 01:49:39;;;;;;;13.40;10.97;;;;;;;-0.36;100.00;95528.72;5069272;27;103176;-61
2021/12/06 01:52:10;;;;;;;13.67;11.50;;;;;;;-0.22;100.00;95529.50;5069402;27;101923;-61
2021/12/06 01:54:40;;;;;;;16.87;12.30;;;;;;;-0.29;100.00;95532.13;5069443;27;105228;-61
2021/12/06 01:57:08;;;;;;;16.17;12.37;;;;;;;-0.19;100.00;95532.50;5068824;27;105287;-61
2021/12/06 01:59:36;;;;;;;14.33;12.03;;;;;;;-0.15;100.00;95528.47;5072825;27;101688;-61
2021/12/06 02:02:04;;;;;;;16.60;12.83;;;;;;;-0.18;100.00;95536.72;5068465;27;103787;-61
2021/12/06 02:04:32;;;;;;;14.80;12.43;;;;;;;-0.19;100.00;95535.09;5069439;27;101811;-61
2021/12/06 02:07:00;;;;;;;15.53;12.30;;;;;;;-0.10;100.00;95537.28;5069144;27;105604;-61
2021/12/06 02:09:28;;;;;;;15.77;13.57;;;;;;;-0.08;100.00;95544.94;5068557;27;104314;-61
2021/12/06 02:12:04;;;;;;;15.30;13.07;;;;;;;-0.17;100.00;95548.75;5068921;27;101777;-61
2021/12/06 02:14:39;;;;;;;18.00;14.20;;;;;;;-0.13;100.00;95545.56;5070740;27;102780;-61
2021/12/06 02:17:15;;;;;;;16.33;13.50;;;;;;;-0.14;100.00;95550.97;5068691;27;105009;-61
2021/12/06 02:19:46;;;;;;;14.07;11.83;;;;;;;-0.18;100.00;95557.59;5069046;27;101900;-61
2021/12/06 02:22:18;;;;;;;11.83;10.27;;;;;;;-0.38;100.00;95551.63;5071946;27;104816;-61
2021/12/06 02:24:45;;;;;;;12.20;10.17;;;;;;;-0.41;100.00;95557.25;5068718;27;101913;-61
2021/12/06 02:27:15;;;;;;;12.70;10.53;;;;;;;-0.65;100.00;95550.06;5068923;27;103686;-61
2021/12/06 02:29:44;;;;;;;12.43;9.93;;;;;;;-0.62;100.00;95554.06;5068284;27;104989;-61
2021/12/06 02:32:13;;;;;;;13.40;10.27;;;;;;;-0.60;100.00;95558.06;5069661;27;102083;-61
2021/12/06 02:34:44;;;;;;;11.83;10.30;;;;;;;-0.58;100.00;95563.09;5068719;27;104774;-61
2021/12/06 02:37:12;;;;;;;12.43;10.57;;;;;;;-0.54;100.00;95565.13;5068448;27;105485;-61
2021/12/06 02:39:40;;;;;;;12.93;11.20;;;;;;;-0.54;100.00;95559.06;5068704;27;102003;-61
2021/12/06 02:42:11;;;;;;;14.10;10.97;;;;;;;-0.49;100.00;95556.66;5071721;27;104836;-61
2021/12/06 02:44:40;;;;;;;13.97;11.07;;;;;;;-0.42;100.00;95566.88;5068043;27;101841;-61
2021/12/06 02:47:07;;;;;;;15.57;11.57;;;;;;;-0.38;100.00;95567.31;5068504;27;104103;-61
2021/12/06 02:49:34;;;;;;;14.70;12.10;;;;;;;-0.49;100.00;95570.53;5068108;27;104939;-61
2021/12/06 02:52:02;;;;;;;13.70;11.97;;;;;;;-0.53;100.00;95574.53;5068464;27;102047;-61
2021/12/06 02:54:30;;;;;;;14.37;12.13;;;;;;;-0.47;100.00;95578.97;5068515;27;105171;-61
2021/12/06 02:57:19;;;;;;;14.37;11.73;;;;;;;-0.47;100.00;95578.97;5067684;27;105510;-61
2021/12/06 02:59:47;;;;;;;15.40;11.87;;;;;;;-0.48;100.00;95577.34;5069162;27;102264;-61
2021/12/06 03:02:17;;;;;;;15.30;12.20;;;;;;;-0.42;100.00;95582.56;5072239;27;104713;-61
2021/12/06 03:04:45;;;;;;;14.60;11.50;;;;;;;-0.36;100.00;95586.19;5074897;27;105445;-61
2021/12/06 03:07:15;;;;;;;15.40;12.07;;;;;;;-0.37;100.00;95587.19;5071867;27;103843;-61
2021/12/06 03:09:43;;;;;;;17.80;13.30;;;;;;;-0.37;100.00;95595.03;5071640;27;105399;-61
2021/12/06 03:12:17;;;;;;;16.03;12.97;;;;;;;-0.32;100.00;95588.16;5072100;27;102177;-61
2021/12/06 03:14:47;;;;;;;15.40;12.53;;;;;;;-0.21;100.00;95594.59;5072020;27;105325;-61
2021/12/06 03:17:20;;;;;;;16.83;13.47;;;;;;;-0.34;100.00;95602.44;5071412;27;105258;-61
2021/12/06 03:19:48;;;;;;;16.63;13.00;;;;;;;-0.42;100.00;95605.28;5071914;27;101975;-61
2021/12/06 03:22:18;;;;;;;15.93;12.40;;;;;;;-0.39;100.00;95611.91;5071575;27;105448;-61
2021/12/06 03:24:48;;;;;;;16.40;13.20;;;;;;;-0.28;100.00;95606.06;5055180;27;105834;-61
2021/12/06 03:27:18;;;;;;;15.27;12.60;;;;;;;-0.06;100.00;95610.84;5075352;27;101852;-61
2021/12/06 03:29:46;;;;;;;17.53;13.27;;;;;;;-0.09;100.00;95612.03;5071260;27;104008;-61
2021/12/06 03:32:15;;;;;;;16.23;13.30;;;;;;;-0.07;100.00;95615.28;5071452;27;102570;-61
2021/12/06 03:34:43;;;;;;;15.47;13.00;;;;;;;-0.17;100.00;95627.13;5071757;27;104862;-61
2021/12/06 03:37:11;;;;;;;16.17;12.70;;;;;;;-0.02;100.00;95625.94;5071089;27;104963;-61
2021/12/06 03:39:40;;;;;;;17.30;12.67;;;;;;;-0.06;100.00;95618.69;5071598;27;101896;-61
2021/12/06 03:42:12;;;;;;;17.73;12.80;;;;;;;-0.12;100.00;95625.53;5071275;27;105384;-61
2021/12/06 03:44:42;;;;;;;16.63;13.70;;;;;;;-0.13;100.00;95623.13;5070311;27;105723;-61
2021/12/06 03:47:17;;;;;;;16.03;12.67;;;;;;;-0.11;100.00;95631.53;5071546;27;101801;-61
2021/12/06 03:49:45;;;;;;;13.93;12.43;;;;;;;-0.16;100.00;95631.38;5074260;27;104863;-61
2021/12/06 03:52:14;;;;;;;17.27;12.80;;;;;;;-0.13;100.00;95633.56;5071301;27;102156;-61
2021/12/06 03:54:46;;;;;;;17.47;13.53;;;;;;;-0.06;100.00;95639.56;5071234;27;104548;-61
2021/12/06 03:57:14;;;;;;;18.53;13.77;;;;;;;-0.07;100.00;95640.59;5070952;27;105120;-61
2021/12/06 03:59:43;;;;;;;16.23;13.53;;;;;;;-0.05;100.00;95633.38;5072478;27;101971;-61
2021/12/06 04:02:11;;;;;;;15.50;12.73;;;;;;;0.00;100.00;95638.78;5071176;27;105115;-61
2021/12/06 04:04:39;;;;;;;16.77;14.07;;;;;;;0.05;100.00;95631.13;5070629;27;105053;-61
2021/12/06 04:07:08;;;;;;;17.10;13.40;;;;;;;0.00;100.00;95628.34;5071146;27;102013;-61
2021/12/06 04:09:38;;;;;;;17.17;12.83;;;;;;;-0.03;100.00;95634.78;5071225;27;105859;-61
2021/12/06 04:12:09;;;;;;;15.43;12.40;;;;;;;0.01;100.00;95635.97;5073018;27;105671;-61
2021/12/06 04:14:38;;;;;;;13.50;12.07;;;;;;;0.02;100.00;95636.78;5071100;27;105047;-61
2021/12/06 04:17:08;;;;;;;14.70;12.17;;;;;;;-0.02;100.00;95631.16;5069978;27;105552;-61
2021/12/06 04:19:35;;;;;;;14.00;12.17;;;;;;;-0.03;100.00;95639.19;5070893;27;101787;-61
2021/12/06 04:22:04;;;;;;;15.67;12.63;;;;;;;-0.07;100.00;95638.78;5070908;27;104775;-61
2021/12/06 04:24:31;;;;;;;14.23;12.30;;;;;;;0.11;100.00;95640.78;5070296;27;105372;-61
2021/12/06 04:27:05;;;;;;;14.23;12.20;;;;;;;0.08;100.00;95652.44;5070753;27;102225;-61
2021/12/06 04:29:33;;;;;;;16.27;12.73;;;;;;;0.13;100.00;95654.44;5070931;27;104805;-61
2021/12/06 04:31:59;;;;;;;13.90;11.90;;;;;;;-0.07;100.00;95656.28;5070031;27;105752;-61
2021/12/06 04:34:28;;;;;;;16.47;13.30;;;;;;;-0.02;100.00;95656.47;5074078;27;101764;-61
2021/12/06 04:36:56;;;;;;;17.23;14.00;;;;;;;0.11;100.00;95665.09;5070234;27;104988;-61
2021/12/06 04:39:24;;;;;;;17.93;15.43;;;;;;;0.13;100.00;95670.13;5070777;27;101834;-61
2021/12/06 04:41:53;;;;;;;15.80;13.37;;;;;;;0.10;100.00;95676.56;5070685;27;105178;-61
2021/12/06 04:44:21;;;;;;;14.87;12.77;;;;;;;0.15;100.00;95678.56;5069299;27;105423;-61
2021/12/06 04:46:49;;;;;;;16.93;12.80;;;;;;;0.11;100.00;95677.38;5070486;27;102107;-61
2021/12/06 04:49:17;;;;;;;15.47;13.17;;;;;;;0.14;100.00;95683.00;5070368;27;103829;-61
2021/12/06 04:51:49;;;;;;;16.40;13.07;;;;;;;0.12;100.00;95681.59;5069702;27;104278;-61
2021/12/06 04:54:22;;;;;;;17.33;12.97;;;;;;;0.21;100.00;95689.00;5073892;27;101890;-61
2021/12/06 04:56:52;;;;;;;15.87;12.73;;;;;;;0.26;100.00;95693.63;5070150;27;105329;-61
2021/12/06 04:59:27;;;;;;;16.17;12.87;;;;;;;0.37;100.00;95703.47;5070664;27;101749;-61
2021/12/06 05:02:16;;;;;;;17.30;13.13;;;;;;;0.31;100.00;95705.09;5070858;27;105223;-61
2021/12/06 05:04:47;;;;;;;16.43;12.97;;;;;;;0.28;100.00;95709.94;5069990;27;105327;-61
2021/12/06 05:07:21;;;;;;;19.47;14.27;;;;;;;0.41;100.00;95704.66;5070658;27;101743;-61
2021/12/06 05:09:49;;;;;;;17.10;13.97;;;;;;;0.40;100.00;95708.28;5070584;27;105584;-61
2021/12/06 05:12:38;;;;;;;18.97;15.33;;;;;;;0.42;100.00;95709.69;5069959;27;105081;-61
2021/12/06 05:15:07;;;;;;;19.00;15.20;;;;;;;0.39;100.00;95710.09;5070465;27;101804;-61
2021/12/06 05:17:34;;;;;;;17.37;14.53;;;;;;;0.38;100.00;95718.94;5073090;27;104910;-61
2021/12/06 05:20:03;;;;;;;18.37;13.53;;;;;;;0.38;100.00;95718.94;5070054;27;102314;-61
2021/12/06 05:22:49;;;;;;;18.10;13.57;;;;;;;0.37;100.00;95719.16;5070081;27;105171;-61
2021/12/06 05:25:45;;;;;;;20.67;14.20;;;;;;;0.27;100.00;95722.19;5069261;27;105480;-61
2021/12/06 05:28:13;;;;;;;18.13;13.63;;;;;;;0.27;100.00;95718.75;5069801;27;101760;-61
2021/12/06 05:30:44;;;;;;;19.53;13.83;;;;;;;0.25;100.00;95726.00;5069926;27;104145;-61
2021/12/06 05:33:17;;;;;;;20.27;15.20;;;;;;;0.22;100.00;95731.66;5069379;27;104994;-61
2021/12/06 05:35:44;;;;;;;19.37;14.60;;;;;;;0.22;100.00;95727.22;5069947;27;101938;-61
2021/12/06 05:38:13;;;;;;;21.30;15.87;;;;;;;0.29;100.00;95729.84;5070743;27;102614;-61
2021/12/06 05:40:43;;;;;;;21.90;16.43;;;;;;;0.29;100.00;95732.44;5072636;27;105358;-61
2021/12/06 05:43:10;;;;;;;23.20;15.07;;;;;;;0.30;100.00;95747.13;5070230;27;102339;-61
2021/12/06 05:45:37;;;;;;;20.27;14.73;;;;;;;0.46;100.00;95749.31;5069039;27;105538;-61
2021/12/06 05:48:05;;;;;;;19.20;14.90;;;;;;;0.46;100.00;95757.16;5070595;27;101739;-61
2021/12/06 05:50:32;;;;;;;22.70;15.60;;;;;;;0.51;100.00;95757.34;5070749;27;103052;-61
2021/12/06 05:52:59;;;;;;;22.30;16.20;;;;;;;0.60;100.00;95759.53;5068916;27;103983;-61
2021/12/06 05:55:29;;;;;;;19.97;15.63;;;;;;;0.65;100.00;95764.16;5069439;27;101876;-61
2021/12/06 05:57:59;;;;;;;21.60;16.03;;;;;;;0.68;100.00;95764.59;5069511;27;103692;-61
2021/12/06 06:00:31;;;;;;;24.00;15.60;;;;;;;0.69;100.00;95771.41;5069698;27;103507;-61
2021/12/06 06:02:58;;;;;;;21.17;15.67;;;;;;;0.68;100.00;95769.00;5072808;27;101839;-61
2021/12/06 06:05:26;;;;;;;25.93;17.70;;;;;;;0.53;100.00;95764.00;5070160;27;103048;-61
2021/12/06 06:07:53;;;;;;;25.43;17.53;;;;;;;0.58;100.00;95776.47;5070685;27;101836;-61
2021/12/06 06:10:20;;;;;;;22.13;16.87;;;;;;;0.54;100.00;95778.69;5070479;27;102443;-61
2021/12/06 06:12:48;;;;;;;23.97;16.67;;;;;;;0.55;100.00;95784.72;5068431;27;105683;-61
2021/12/06 06:15:16;;;;;;;21.63;16.63;;;;;;;0.63;100.00;95784.50;5069027;27;101817;-61
2021/12/06 06:17:44;;;;;;;23.30;16.73;;;;;;;0.73;100.00;95795.34;5068994;27;105915;-61
2021/12/06 06:20:15;;;;;;;21.10;15.73;;;;;;;0.74;100.00;95796.97;5068707;27;105440;-61
2021/12/06 06:22:43;;;;;;;20.40;14.83;;;;;;;0.76;100.00;95798.38;5070499;27;101838;-61
2021/12/06 06:25:10;;;;;;;19.87;15.50;;;;;;;0.75;100.00;95801.19;5073356;27;102385;-61
2021/12/06 06:27:37;;;;;;;24.03;16.00;;;;;;;0.73;100.00;95801.38;5068850;27;101849;-61
2021/12/06 06:30:08;;;;;;;20.77;16.13;;;;;;;0.61;100.00;95807.44;5068913;27;104837;-61
2021/12/06 06:32:35;;;;;;;21.30;16.37;;;;;;;0.69;100.00;95808.03;5069707;27;102544;-61
2021/12/06 06:35:04;;;;;;;21.83;18.10;;;;;;;0.68;100.00;95810.84;5068130;27;102099;-61
2021/12/06 06:37:31;;;;;;;26.17;19.80;;;;;;;0.65;100.00;95816.47;5070296;27;102390;-61
2021/12/06 06:39:58;;;;;;;26.07;18.47;;;;;;;0.65;100.00;95821.72;5068231;27;105680;-61
2021/12/06 06:42:27;;;;;;;24.50;17.17;;;;;;;0.74;100.00;95820.50;5068554;27;101859;-61
2021/12/06 06:44:56;;;;;;;25.37;17.50;;;;;;;0.73;100.00;95818.91;5068032;27;104988;-61
2021/12/06 06:47:26;;;;;;;20.23;16.20;;;;;;;0.66;100.00;95818.91;5068663;27;101990;-61
2021/12/06 06:49:54;;;;;;;22.10;15.93;;;;;;;0.67;100.00;95819.72;5068590;27;105594;-61
2021/12/06 06:52:21;;;;;;;18.80;15.20;;;;;;;0.72;100.00;95825.94;5068075;27;105166;-61
2021/12/06 06:54:48;;;;;;;17.20;14.17;;;;;;;0.62;100.00;95830.78;5068574;27;101865;-61
2021/12/06 06:57:16;;;;;;;23.80;15.03;;;;;;;0.74;100.00;95833.59;5068438;27;104834;-61
2021/12/06 06:59:45;;;;;;;17.43;14.63;;;;;;;0.68;100.00;95831.78;5067646;27;105904;-61
2021/12/06 07:02:12;;;;;;;22.13;16.27;;;;;;;0.68;100.00;95831.78;5069726;27;101786;-61
2021/12/06 07:04:41;;;;;;;20.43;16.30;;;;;;;0.78;100.00;95845.28;5068623;27;105578;-61
2021/12/06 07:07:09;;;;;;;19.73;15.70;;;;;;;0.75;100.00;95853.50;5071265;27;105324;-61
2021/12/06 07:09:36;;;;;;;19.97;14.93;;;;;;;0.79;100.00;95854.72;5068490;27;104902;-61
2021/12/06 07:12:03;;;;;;;24.10;16.50;;;;;;;0.74;100.00;95865.00;5067745;27;105743;-61
2021/12/06 07:14:31;;;;;;;23.43;15.07;;;;;;;0.75;100.00;95869.22;5068199;27;101890;-61
2021/12/06 07:16:58;;;;;;;17.50;13.93;;;;;;;0.88;100.00;95874.44;5068344;27;104111;-61
2021/12/06 07:19:24;;;;;;;19.50;14.80;;;;;;;0.81;100.00;95873.63;5067718;27;105336;-61
2021/12/06 07:21:54;;;;;;;19.70;13.77;;;;;;;0.92;100.00;95873.00;5068062;27;101845;-61
2021/12/06 07:24:21;;;;;;;17.60;13.83;;;;;;;0.88;100.00;95875.25;5068418;27;105214;-61
2021/12/06 07:26:48;;;;;;;19.83;14.70;;;;;;;0.90;100.00;95877.66;5067794;27;105364;-61
2021/12/06 07:29:15;;;;;;;18.30;14.80;;;;;;;0.98;100.00;95874.81;5071233;27;102168;-61
2021/12/06 07:31:42;;;;;;;20.07;16.57;;;;;;;1.07;100.00;95882.28;5067710;27;105385;-61
2021/12/06 07:34:10;;;;;;;21.23;15.67;;;;;;;1.03;100.00;95888.09;5067640;27;102233;-61
2021/12/06 07:36:36;;;;;;;19.77;15.77;;;;;;;1.06;100.00;95893.75;5068201;27;102482;-61
2021/12/06 07:39:05;;;;;;;20.80;15.53;;;;;;;1.08;100.00;95896.16;5067109;27;105559;-61
2021/12/06 07:41:32;;;;;;;20.93;15.50;;;;;;;1.07;100.00;95899.78;5067888;27;101822;-61
2021/12/06 07:44:00;;;;;;;18.10;14.83;;;;;;;1.24;100.00;95898.34;5067500;27;105303;-61
2021/12/06 07:46:28;;;;;;;21.03;16.50;;;;;;;1.44;100.00;95902.56;5067435;27;105736;-61
2021/12/06 07:48:55;;;;;;;20.47;15.37;;;;;;;1.49;100.00;95899.31;5071403;27;101802;-61
2021/12/06 07:51:23;;;;;;;21.80;16.37;;;;;;;1.37;100.00;95903.56;5074520;27;104760;-61
2021/12/06 07:53:51;;;;;;;20.50;15.93;;;;;;;1.39;100.00;95901.53;5072569;27;101741;-61
2021/12/06 07:56:20;;;;;;;22.17;16.97;;;;;;;1.51;100.00;95902.50;5071335;27;104122;-61
2021/12/06 07:58:48;;;;;;;23.87;16.60;;;;;;;1.49;100.00;95915.81;5072320;27;102500;-61
2021/12/06 08:01:16;;;;;;;24.47;16.70;;;;;;;1.49;100.00;95912.41;5072442;27;101703;-61
2021/12/06 08:03:44;;;;;;;25.07;18.57;;;;;;;1.53;100.00;95916.22;5072569;27;102994;-61
2021/12/06 08:06:12;;;;;;;24.50;18.37;;;;;;;1.57;100.00;95912.16;5070898;27;105741;-61
2021/12/06 08:08:43;;;;;;;23.30;18.47;;;;;;;1.63;100.00;95908.72;5071178;27;101917;-61
2021/12/06 08:11:13;;;;;;;30.00;21.50;;;;;;;1.67;100.00;95915.16;5072729;27;102745;-61
2021/12/06 08:13:45;;;;;;;30.07;20.57;;;;;;;1.69;100.00;95924.44;5073676;27;105605;-61
2021/12/06 08:16:14;;;;;;;27.80;20.43;;;;;;;1.72;100.00;95926.66;5070961;27;105193;-61
2021/12/06 08:18:41;;;;;;;28.17;20.27;;;;;;;1.84;100.00;95924.97;5070330;27;105833;-61
2021/12/06 08:21:08;;;;;;;26.13;19.07;;;;;;;1.87;100.00;95926.38;5071012;27;101864;-61
2021/12/06 08:23:36;;;;;;;23.07;17.47;;;;;;;1.92;100.00;95931.81;5070669;27;103725;-61
2021/12/06 08:26:05;;;;;;;22.87;17.20;;;;;;;1.86;100.00;95932.66;5070147;27;105766;-61
2021/12/06 08:28:35;;;;;;;22.77;17.30;;;;;;;1.87;100.00;95934.25;5072009;27;101928;-61
2021/12/06 08:31:05;;;;;;;33.60;21.87;;;;;;;1.83;100.00;95930.44;5070775;27;105772;-61
2021/12/06 08:33:32;;;;;;;23.93;17.57;;;;;;;1.70;100.00;95938.34;5070115;27;105411;-61
2021/12/06 08:35:59;;;;;;;22.03;16.10;;;;;;;1.72;100.00;95941.56;5073917;27;101839;-61
2021/12/06 08:38:30;;;;;;;22.60;16.60;;;;;;;1.77;100.00;95933.88;5070151;27;105868;-61
2021/12/06 08:41:02;;;;;;;28.13;19.57;;;;;;;1.91;100.00;95945.94;5072193;27;101759;-61
2021/12/06 08:43:29;;;;;;;23.50;16.57;;;;;;;1.82;100.00;95948.00;5071352;27;103240;-61
2021/12/06 08:46:00;;;;;;;19.50;15.20;;;;;;;1.87;100.00;95944.75;5070144;27;105511;-61
2021/12/06 08:48:32;;;;;;;24.30;15.50;;;;;;;1.83;100.00;95949.59;5070253;27;102063;-61
2021/12/06 08:51:01;;;;;;;20.03;14.60;;;;;;;1.94;100.00;95962.06;5071996;27;102424;-61
2021/12/06 08:53:29;;;;;;;22.20;15.13;;;;;;;1.89;100.00;95958.44;5069954;27;106035;-61
2021/12/06 08:55:57;;;;;;;23.77;14.40;;;;;;;1.91;100.00;95962.47;5073764;27;102018;-61
2021/12/06 08:58:24;;;;;;;19.70;13.43;;;;;;;1.97;100.00;95963.47;5071306;27;101961;-61
2021/12/06 09:00:53;;;;;;;19.20;13.20;;;;;;;1.91;100.00;95966.91;5070243;27;102025;-61
2021/12/06 09:03:19;;;;;;;16.20;13.17;;;;;;;1.67;100.00;95968.38;5070374;27;105604;-61
2021/12/06 09:05:51;;;;;;;16.90;13.17;;;;;;;1.77;100.00;95966.16;5069680;27;105199;-61
2021/12/06 09:08:19;;;;;;;17.53;12.90;;;;;;;1.90;100.00;95970.53;5071575;27;101735;-61
2021/12/06 09:10:49;;;;;;;16.90;13.03;;;;;;;1.87;100.00;95970.94;5070095;27;104965;-61
2021/12/06 09:13:17;;;;;;;16.70;13.33;;;;;;;1.91;100.00;95982.66;5069791;27;105420;-61
2021/12/06 09:15:44;;;;;;;16.87;13.27;;;;;;;1.87;100.00;95979.59;5069929;27;101984;-61
2021/12/06 09:18:12;;;;;;;21.00;14.00;;;;;;;2.03;100.00;95980.97;5072868;27;105166;-61
2021/12/06 09:20:43;;;;;;;16.97;12.00;;;;;;;2.10;100.00;95987.00;5069849;27;101943;-61
2021/12/06 09:23:13;;;;;;;17.90;12.30;;;;;;;2.13;100.00;95984.75;5069906;27;105232;-61
2021/12/06 09:25:43;;;;;;;15.80;11.60;;;;;;;2.26;100.00;95989.16;5068984;27;105349;-61
2021/12/06 09:28:11;;;;;;;17.90;12.27;;;;;;;2.27;100.00;95993.38;5069693;27;101858;-61
2021/12/06 09:30:39;;;;;;;13.20;11.60;;;;;;;2.15;100.00;95989.81;5069897;27;105545;-61
2021/12/06 09:33:09;;;;;;;16.43;12.43;;;;;;;2.28;100.00;95995.81;5069100;27;104075;-61
2021/12/06 09:35:41;;;;;;;16.33;12.07;;;;;;;2.22;100.00;95998.44;5069835;27;102019;-61
2021/12/06 09:38:09;;;;;;;15.80;11.53;;;;;;;2.36;100.00;96000.00;5069737;27;104429;-61
2021/12/06 09:40:40;;;;;;;17.50;12.40;;;;;;;2.33;100.00;96005.66;5072312;27;105297;-61
2021/12/06 09:43:10;;;;;;;17.00;12.40;;;;;;;2.47;100.00;96000.13;5068847;27;105153;-61
2021/12/06 09:45:38;;;;;;;15.20;12.00;;;;;;;2.57;100.00;96000.50;5070632;27;103129;-61
2021/12/06 09:48:07;;;;;;;20.47;12.73;;;;;;;2.58;100.00;96001.31;5070843;27;102074;-61
2021/12/06 09:50:38;;;;;;;15.83;12.33;;;;;;;2.71;100.00;96001.22;5069456;27;103698;-61
2021/12/06 09:53:09;;;;;;;14.80;12.47;;;;;;;2.86;100.00;95999.13;5068495;27;105348;-61
2021/12/06 09:55:40;;;;;;;15.73;11.07;;;;;;;2.86;100.00;95997.31;5069626;27;101834;-61
2021/12/06 09:58:07;;;;;;;14.57;9.90;;;;;;;2.63;100.00;95994.41;5069456;27;103922;-61
2021/12/06 10:00:41;;;;;;;16.90;11.17;;;;;;;2.79;100.00;95996.53;5069825;27;104366;-61
2021/12/06 10:03:08;;;;;;;13.10;11.10;;;;;;;2.78;100.00;95992.31;5072538;27;101755;-61
2021/12/06 10:05:37;;;;;;;14.23;11.20;;;;;;;2.82;100.00;95996.13;5068727;27;105500;-61
2021/12/06 10:08:05;;;;;;;14.73;9.73;;;;;;;2.84;100.00;95996.69;5069171;27;102282;-61
2021/12/06 10:10:33;;;;;;;14.67;10.43;;;;;;;2.65;100.00;95992.41;5069440;27;104760;-61
2021/12/06 10:13:02;;;;;;;13.70;10.07;;;;;;;2.93;100.00;95984.94;5068654;27;104947;-61
2021/12/06 10:15:31;;;;;;;14.07;11.47;;;;;;;3.04;100.00;95988.69;5069333;27;101888;-61
2021/12/06 10:18:00;;;;;;;17.03;12.23;;;;;;;3.16;100.00;95982.53;5068566;27;103563;-61
2021/12/06 10:20:30;;;;;;;15.53;11.13;;;;;;;3.26;100.00;95984.66;5068416;27;104294;-61
2021/12/06 10:22:57;;;;;;;12.43;10.90;;;;;;;3.21;100.00;95974.00;5068929;27;101890;-61
2021/12/06 10:25:40;;;;;;;12.30;10.27;;;;;;;3.07;100.00;95965.41;5071877;27;104966;-61
2021/12/06 10:28:09;;;;;;;16.97;10.83;;;;;;;3.11;100.00;95963.19;5068516;27;101846;-61
2021/12/06 10:30:40;;;;;;;20.40;10.60;;;;;;;3.02;100.00;95967.91;5068852;27;104981;-61
2021/12/06 10:33:09;;;;;;;13.87;10.93;;;;;;;3.21;100.00;95974.00;5069917;27;102635;-61
2021/12/06 10:35:40;;;;;;;15.60;10.77;;;;;;;3.26;100.00;95980.22;5068863;27;101971;-61
2021/12/06 10:38:07;;;;;;;14.20;11.50;;;;;;;3.26;100.00;95979.41;5068852;27;104048;-61
2021/12/06 10:40:37;;;;;;;14.90;10.87;;;;;;;3.18;100.00;95983.13;5067996;27;105325;-61
2021/12/06 10:43:06;;;;;;;13.40;10.80;;;;;;;3.11;100.00;95976.31;5069628;27;101925;-61
2021/12/06 10:45:38;;;;;;;15.70;11.10;;;;;;;2.95;100.00;95976.84;5070185;27;102413;-61
2021/12/06 10:48:13;;;;;;;12.50;10.27;;;;;;;3.07;100.00;95969.88;5071408;27;104072;-61
2021/12/06 10:50:44;;;;;;;14.70;10.70;;;;;;;3.15;100.00;95973.06;5068500;27;105591;-61
2021/12/06 10:53:12;;;;;;;13.43;10.13;;;;;;;2.97;100.00;95972.19;5069742;27;102579;-61
2021/12/06 10:55:40;;;;;;;15.70;10.20;;;;;;;2.81;100.00;95965.63;5068211;27;102010;-61
2021/12/06 10:58:09;;;;;;;12.33;9.20;;;;;;;2.93;100.00;95971.81;5068513;27;105327;-61
2021/12/06 11:00:48;;;;;;;12.97;9.07;;;;;;;3.00;100.00;95969.94;5068501;27;105346;-61
2021/12/06 11:03:26;;;;;;;11.33;9.00;;;;;;;2.95;100.00;95982.09;5069284;27;101819;-61
2021/12/06 11:05:58;;;;;;;12.87;9.77;;;;;;;3.28;100.00;95972.94;5070263;27;103142;-61
2021/12/06 11:08:24;;;;;;;12.30;9.73;;;;;;;3.86;100.00;95976.81;5071700;27;105177;-61
2021/12/06 11:10:56;;;;;;;10.80;9.40;;;;;;;3.99;100.00;95978.53;5069119;27;105202;-61
2021/12/06 11:13:27;;;;;;;11.37;8.87;;;;;;;4.12;100.00;95973.91;5068166;27;105105;-61
2021/12/06 11:16:09;;;;;;;9.53;8.53;;;;;;;3.78;100.00;95969.22;5068603;27;101893;-61
2021/12/06 11:18:40;;;;;;;12.40;8.83;;;;;;;3.82;100.00;95967.75;5069146;27;104742;-61
2021/12/06 11:21:17;;;;;;;12.60;8.40;;;;;;;4.04;100.00;95968.16;5070131;27;103070;-61
2021/12/06 11:24:08;;;;;;;9.13;7.60;;;;;;;3.94;100.00;95973.91;5074295;27;102098;-61
2021/12/06 11:26:37;;;;;;;9.13;8.00;;;;;;;4.21;100.00;95966.53;5072658;27;104787;-61